Time;durP1;ratioP1;P1;durP2;ratioP2;P2;SDS_P1;SDS_P2;PMS_P1;PMS_P2;Temp;Humidity;BMP_temperature;BMP_pressure;BME280_temperature;BME280_humidity;BME280_pressure;Samples;Min_cycle;Max_cycle;Signal;HPM_P1;HPM_P2
2022/03/14 00:00:10;;;;;;;19.23;15.30;;;10.00;74.10;;;;;;4989258;28;20042;-77
2022/03/14 00:02:37;;;;;;;20.07;15.23;;;10.00;75.50;;;;;;4971768;28;20505;-77
2022/03/14 00:05:06;;;;;;;18.92;14.68;;;10.00;75.90;;;;;;4976734;28;20340;-78
2022/03/14 00:07:37;;;;;;;19.10;14.38;;;10.00;76.70;;;;;;4971644;28;20624;-77
2022/03/14 00:10:07;;;;;;;19.60;14.15;;;9.90;77.80;;;;;;4982861;28;20489;-77
2022/03/14 00:12:33;;;;;;;21.00;15.02;;;10.00;79.40;;;;;;4966621;28;20034;-77
2022/03/14 00:14:59;;;;;;;19.38;14.38;;;9.90;81.50;;;;;;4973632;28;20057;-77
2022/03/14 00:17:26;;;;;;;16.38;13.40;;;9.90;83.20;;;;;;4991362;28;20050;-77
2022/03/14 00:19:54;;;;;;;17.90;14.35;;;9.90;84.70;;;;;;4976513;28;20497;-78
2022/03/14 00:22:22;;;;;;;18.38;13.57;;;9.90;85.50;;;;;;4997132;28;20046;-79
2022/03/14 00:24:48;;;;;;;17.60;13.52;;;9.80;87.70;;;;;;4997045;28;20057;-78
2022/03/14 00:27:14;;;;;;;16.13;12.55;;;9.90;90.20;;;;;;4978414;28;20125;-79
2022/03/14 00:29:40;;;;;;;16.05;12.40;;;9.80;91.30;;;;;;4970170;28;20132;-77
2022/03/14 00:32:07;;;;;;;15.23;12.50;;;9.80;92.00;;;;;;4973296;28;20461;-77
2022/03/14 00:34:32;;;;;;;15.90;12.05;;;9.90;92.80;;;;;;4969719;28;20038;-77
2022/03/14 00:36:58;;;;;;;16.13;12.18;;;9.90;94.10;;;;;;4967043;28;20073;-78
2022/03/14 00:39:24;;;;;;;15.95;12.27;;;9.90;94.60;;;;;;4961116;28;20109;-78
2022/03/14 00:41:50;;;;;;;12.38;10.32;;;9.90;95.50;;;;;;4974100;28;20046;-78
2022/03/14 00:44:17;;;;;;;13.60;11.57;;;9.90;95.80;;;;;;4976186;28;20049;-77
2022/03/14 00:46:44;;;;;;;12.77;11.38;;;10.00;96.40;;;;;;4989268;28;20810;-77
2022/03/14 00:49:11;;;;;;;14.18;10.63;;;10.00;96.90;;;;;;4997535;28;20056;-77
2022/03/14 00:51:37;;;;;;;14.88;11.20;;;10.00;97.50;;;;;;4970738;28;20046;-77
2022/03/14 00:54:04;;;;;;;12.25;10.32;;;10.00;97.80;;;;;;4987382;28;20081;-77
2022/03/14 00:56:30;;;;;;;12.80;10.38;;;10.00;98.30;;;;;;4966964;28;20128;-77
2022/03/14 00:58:59;;;;;;;13.65;9.63;;;10.00;98.60;;;;;;4976317;28;20069;-77
2022/03/14 01:01:26;;;;;;;12.40;9.77;;;10.00;99.10;;;;;;4989774;28;20081;-78
2022/03/14 01:03:53;;;;;;;11.20;8.90;;;10.00;99.10;;;;;;4996044;28;20136;-77
2022/03/14 01:06:19;;;;;;;11.50;9.02;;;10.00;99.30;;;;;;4990890;28;20053;-77
2022/03/14 01:08:45;;;;;;;12.27;9.20;;;10.10;99.60;;;;;;4998313;28;20479;-78
2022/03/14 01:11:11;;;;;;;11.65;9.80;;;10.10;99.90;;;;;;4977615;28;20073;-77
2022/03/14 01:13:36;;;;;;;11.02;9.07;;;10.10;99.90;;;;;;4982109;28;20129;-77
2022/03/14 01:16:03;;;;;;;13.52;10.63;;;10.10;99.90;;;;;;4982811;28;20552;-77
2022/03/14 01:18:29;;;;;;;13.25;11.00;;;10.00;99.90;;;;;;4975244;28;20041;-77
2022/03/14 01:20:56;;;;;;;14.27;11.55;;;10.00;99.90;;;;;;4974986;28;20054;-76
2022/03/14 01:23:22;;;;;;;12.60;10.98;;;9.80;99.90;;;;;;4988468;28;20038;-76
2022/03/14 01:25:49;;;;;;;11.80;10.45;;;9.70;99.90;;;;;;4997080;28;20048;-77
2022/03/14 01:28:15;;;;;;;11.95;9.85;;;9.70;99.90;;;;;;4969338;28;20528;-78
2022/03/14 01:30:43;;;;;;;11.82;9.80;;;9.60;99.90;;;;;;4998628;28;20045;-77
2022/03/14 01:33:10;;;;;;;12.32;9.98;;;9.50;99.90;;;;;;4996806;28;20065;-78
2022/03/14 01:35:37;;;;;;;10.30;8.60;;;9.60;99.90;;;;;;4995224;28;20046;-78
2022/03/14 01:38:04;;;;;;;11.02;8.32;;;9.60;99.90;;;;;;4978412;28;20038;-76
2022/03/14 01:40:30;;;;;;;10.43;7.72;;;9.60;99.90;;;;;;4994585;28;20665;-76
2022/03/14 01:42:58;;;;;;;9.10;7.45;;;9.70;99.90;;;;;;4986879;28;20064;-77
2022/03/14 01:45:25;;;;;;;10.80;8.48;;;9.70;99.90;;;;;;4993452;28;20046;-78
2022/03/14 01:47:52;;;;;;;11.43;9.18;;;9.70;99.90;;;;;;4996267;28;20062;-77
2022/03/14 01:50:18;;;;;;;9.98;8.65;;;9.70;99.90;;;;;;4969544;28;20095;-76
2022/03/14 01:52:45;;;;;;;11.75;8.77;;;9.70;99.90;;;;;;4974706;28;20046;-76
2022/03/14 01:55:13;;;;;;;9.18;8.15;;;9.70;99.90;;;;;;4994984;28;20076;-76
2022/03/14 01:57:40;;;;;;;9.73;7.63;;;9.70;99.90;;;;;;4943410;28;20457;-76
2022/03/14 02:00:09;;;;;;;8.93;7.15;;;9.70;99.90;;;;;;4997623;28;20048;-76
2022/03/14 02:02:34;;;;;;;9.02;6.88;;;9.70;99.90;;;;;;4990092;28;20049;-77
2022/03/14 02:05:00;;;;;;;9.38;6.47;;;9.70;99.90;;;;;;4972015;28;20396;-77
2022/03/14 02:07:26;;;;;;;9.93;7.03;;;9.80;99.90;;;;;;4980527;28;20626;-77
2022/03/14 02:09:52;;;;;;;8.20;6.50;;;9.80;99.90;;;;;;4954933;28;20046;-77
2022/03/14 02:12:18;;;;;;;9.15;6.72;;;9.80;99.90;;;;;;4982394;28;20405;-76
2022/03/14 02:14:44;;;;;;;8.80;6.88;;;9.80;99.90;;;;;;4979723;28;20187;-77
2022/03/14 02:17:11;;;;;;;8.45;6.22;;;9.80;99.90;;;;;;4982948;28;20057;-77
2022/03/14 02:19:37;;;;;;;9.43;6.95;;;9.80;99.90;;;;;;4973691;28;20057;-77
2022/03/14 02:22:05;;;;;;;8.43;7.00;;;9.80;99.90;;;;;;4961690;28;20080;-77
2022/03/14 02:24:31;;;;;;;8.82;7.05;;;9.80;99.90;;;;;;4995344;28;20049;-76
2022/03/14 02:26:57;;;;;;;8.63;6.75;;;9.80;99.90;;;;;;4971427;28;20053;-77
2022/03/14 02:29:26;;;;;;;9.40;7.40;;;9.80;99.90;;;;;;4984666;28;20091;-77
2022/03/14 02:31:53;;;;;;;10.02;7.22;;;9.80;99.90;;;;;;4960068;28;20111;-77
2022/03/14 02:34:19;;;;;;;8.00;7.10;;;9.80;99.90;;;;;;4981131;28;20467;-77
2022/03/14 02:36:45;;;;;;;7.40;6.25;;;9.80;99.90;;;;;;5000521;28;20050;-77
2022/03/14 02:39:11;;;;;;;8.30;6.10;;;9.70;99.90;;;;;;4977078;28;20143;-77
2022/03/14 02:41:37;;;;;;;8.27;6.25;;;9.80;99.90;;;;;;4990437;28;20038;-77
2022/03/14 02:44:07;;;;;;;8.93;6.03;;;9.80;99.90;;;;;;4987005;28;20457;-77
2022/03/14 02:46:37;;;;;;;7.20;6.10;;;9.80;99.90;;;;;;4976608;28;20043;-77
2022/03/14 02:49:04;;;;;;;8.55;6.03;;;9.80;99.90;;;;;;4973616;28;20054;-77
2022/03/14 02:51:30;;;;;;;6.85;5.50;;;9.80;99.90;;;;;;4976345;28;20069;-77
2022/03/14 02:53:57;;;;;;;7.10;5.63;;;9.80;99.90;;;;;;4998562;28;20080;-77
2022/03/14 02:56:23;;;;;;;9.00;5.82;;;9.90;99.90;;;;;;4961683;28;20081;-77
2022/03/14 02:58:51;;;;;;;8.80;6.10;;;9.90;99.90;;;;;;4966835;28;20042;-77
2022/03/14 03:01:18;;;;;;;7.85;5.93;;;9.90;99.90;;;;;;4981692;28;20058;-77
2022/03/14 03:03:44;;;;;;;9.05;5.93;;;9.90;99.90;;;;;;4996385;28;20437;-77
2022/03/14 03:06:13;;;;;;;7.05;5.25;;;9.90;99.90;;;;;;4970745;28;20609;-77
2022/03/14 03:08:43;;;;;;;6.10;5.03;;;9.90;99.90;;;;;;5004656;28;20141;-77
2022/03/14 03:11:11;;;;;;;5.45;4.55;;;9.90;99.90;;;;;;4998985;28;20497;-78
2022/03/14 03:13:38;;;;;;;6.78;4.82;;;9.90;99.90;;;;;;4988484;28;20057;-77
2022/03/14 03:16:07;;;;;;;7.07;5.25;;;10.00;99.90;;;;;;5003639;28;20116;-78
2022/03/14 03:18:34;;;;;;;6.88;4.80;;;10.00;99.90;;;;;;4988443;28;20145;-77
2022/03/14 03:21:00;;;;;;;7.00;5.18;;;10.00;99.90;;;;;;4988328;28;20539;-77
2022/03/14 03:23:33;;;;;;;5.57;4.82;;;10.00;99.90;;;;;;4996149;28;20042;-77
2022/03/14 03:25:59;;;;;;;7.00;4.82;;;10.00;99.90;;;;;;4991445;28;20114;-77
2022/03/14 03:28:25;;;;;;;8.10;5.00;;;9.90;99.90;;;;;;4988302;28;20049;-77
2022/03/14 03:30:52;;;;;;;9.90;5.57;;;9.90;99.90;;;;;;4988291;28;20050;-78
2022/03/14 03:33:18;;;;;;;7.13;5.43;;;9.80;99.90;;;;;;5003980;28;20465;-78
2022/03/14 03:35:44;;;;;;;6.25;5.13;;;9.80;99.90;;;;;;5004313;28;20046;-77
2022/03/14 03:38:10;;;;;;;6.00;4.72;;;9.80;99.90;;;;;;4974171;28;20135;-77
2022/03/14 03:40:36;;;;;;;5.95;4.75;;;9.80;99.90;;;;;;4952962;28;20354;-77
2022/03/14 03:43:01;;;;;;;6.60;5.07;;;9.80;99.90;;;;;;4953046;28;20053;-77
2022/03/14 03:45:27;;;;;;;5.70;4.70;;;9.80;99.90;;;;;;4976128;28;20046;-77
2022/03/14 03:47:54;;;;;;;5.72;4.90;;;9.80;99.90;;;;;;5000996;28;20527;-77
2022/03/14 03:50:20;;;;;;;6.25;5.00;;;9.80;99.90;;;;;;4977749;28;20053;-77
2022/03/14 03:52:45;;;;;;;5.38;4.47;;;9.80;99.90;;;;;;4984274;28;20193;-76
2022/03/14 03:55:11;;;;;;;6.30;4.80;;;9.80;99.90;;;;;;4999719;28;20129;-77
2022/03/14 03:57:37;;;;;;;7.13;4.93;;;9.80;99.90;;;;;;4988354;28;20042;-77
2022/03/14 04:00:05;;;;;;;7.63;4.55;;;9.80;99.90;;;;;;5005023;28;20460;-77
2022/03/14 04:02:36;;;;;;;6.72;5.20;;;9.90;99.90;;;;;;4985669;28;20045;-76
2022/03/14 04:05:02;;;;;;;6.50;4.53;;;9.90;99.90;;;;;;5005175;28;20050;-77
2022/03/14 04:07:32;;;;;;;5.80;4.90;;;9.90;99.90;;;;;;5003012;28;20041;-77
2022/03/14 04:09:59;;;;;;;5.78;4.32;;;9.90;99.90;;;;;;4987867;28;20392;-77
2022/03/14 04:12:26;;;;;;;5.20;4.35;;;9.90;99.90;;;;;;4987635;28;20041;-76
2022/03/14 04:15:04;;;;;;;5.85;4.28;;;9.80;99.90;;;;;;5003955;28;20096;-77
2022/03/14 04:17:31;;;;;;;6.25;5.03;;;9.80;99.90;;;;;;4984327;28;20064;-77
2022/03/14 04:19:59;;;;;;;5.47;4.53;;;9.80;99.90;;;;;;4987927;28;20045;-77
2022/03/14 04:22:29;;;;;;;6.05;4.57;;;9.80;99.90;;;;;;5003658;28;20500;-77
2022/03/14 04:24:59;;;;;;;5.43;4.40;;;9.80;99.90;;;;;;4968499;28;20105;-77
2022/03/14 04:27:26;;;;;;;5.32;4.55;;;9.70;99.90;;;;;;4984427;28;20333;-76
2022/03/14 04:29:52;;;;;;;5.57;4.05;;;9.70;99.90;;;;;;4954640;28;20089;-76
2022/03/14 04:32:18;;;;;;;6.15;4.50;;;9.70;99.90;;;;;;4972075;28;20093;-76
2022/03/14 04:34:44;;;;;;;6.13;4.40;;;9.70;99.90;;;;;;4988162;28;20081;-76
2022/03/14 04:37:13;;;;;;;5.50;4.35;;;9.70;99.90;;;;;;4993151;28;20038;-76
2022/03/14 04:39:40;;;;;;;5.97;4.50;;;9.60;99.90;;;;;;5007886;28;20441;-77
2022/03/14 04:42:07;;;;;;;6.70;4.55;;;9.60;99.90;;;;;;4991884;28;20133;-77
2022/03/14 04:44:34;;;;;;;5.55;4.20;;;9.60;99.90;;;;;;4991148;28;20049;-77
2022/03/14 04:46:59;;;;;;;4.85;3.95;;;9.70;99.90;;;;;;4959291;28;20717;-77
2022/03/14 04:49:28;;;;;;;5.07;4.05;;;9.60;99.90;;;;;;4955002;28;20077;-77
2022/03/14 04:51:55;;;;;;;6.10;4.32;;;9.70;99.90;;;;;;4971688;28;20050;-77
2022/03/14 04:54:24;;;;;;;5.90;4.30;;;9.70;99.90;;;;;;4990921;28;20112;-78
2022/03/14 04:56:50;;;;;;;5.38;4.05;;;9.70;99.90;;;;;;5006600;28;20046;-77
2022/03/14 04:59:16;;;;;;;5.65;4.22;;;9.70;99.90;;;;;;4974551;28;20108;-77
2022/03/14 05:01:42;;;;;;;4.78;3.70;;;9.70;99.90;;;;;;4983292;28;20049;-78
2022/03/14 05:04:08;;;;;;;6.13;4.35;;;9.70;99.90;;;;;;4987119;28;20058;-77
2022/03/14 05:06:34;;;;;;;5.25;3.97;;;9.70;99.90;;;;;;4970553;28;20042;-78
2022/03/14 05:09:01;;;;;;;5.90;4.20;;;9.70;99.90;;;;;;4986354;28;20808;-78
2022/03/14 05:11:27;;;;;;;5.32;4.32;;;9.70;99.90;;;;;;4981193;28;20087;-78
2022/03/14 05:13:53;;;;;;;5.53;4.30;;;9.70;99.90;;;;;;4971523;28;20050;-77
2022/03/14 05:16:20;;;;;;;5.72;4.35;;;9.70;99.90;;;;;;4980137;28;20777;-77
2022/03/14 05:18:47;;;;;;;5.40;4.13;;;9.70;99.90;;;;;;5007374;28;20042;-78
2022/03/14 05:21:13;;;;;;;4.78;3.83;;;9.70;99.90;;;;;;4997315;28;20449;-77
2022/03/14 05:23:39;;;;;;;5.45;4.50;;;9.70;99.90;;;;;;4990201;28;20049;-77
2022/03/14 05:26:05;;;;;;;5.40;4.43;;;9.70;99.90;;;;;;5006738;28;20480;-77
2022/03/14 05:28:31;;;;;;;6.05;4.15;;;9.70;99.90;;;;;;5006798;28;20060;-77
2022/03/14 05:30:57;;;;;;;6.45;4.30;;;9.70;99.90;;;;;;4990810;28;20046;-78
2022/03/14 05:33:23;;;;;;;6.40;4.30;;;9.70;99.90;;;;;;4974878;28;20373;-77
2022/03/14 05:35:50;;;;;;;6.45;4.75;;;9.70;99.90;;;;;;5007114;28;20049;-78
2022/03/14 05:38:16;;;;;;;6.35;4.88;;;9.70;99.90;;;;;;4960165;28;20058;-78
2022/03/14 05:40:42;;;;;;;5.80;4.68;;;9.70;99.90;;;;;;4987540;28;20100;-78
2022/03/14 05:43:10;;;;;;;5.45;4.53;;;9.70;99.90;;;;;;4986922;28;20046;-78
2022/03/14 05:45:36;;;;;;;6.88;4.82;;;9.70;99.90;;;;;;4975372;28;20083;-78
2022/03/14 05:48:03;;;;;;;5.85;5.03;;;9.60;99.90;;;;;;4990400;28;20516;-78
2022/03/14 05:50:29;;;;;;;5.97;4.75;;;9.60;99.90;;;;;;5004505;28;20041;-78
2022/03/14 05:52:58;;;;;;;6.00;4.63;;;9.60;99.90;;;;;;5003474;28;20116;-78
2022/03/14 05:55:24;;;;;;;7.03;4.95;;;9.60;99.90;;;;;;4984325;28;20074;-77
2022/03/14 05:57:54;;;;;;;6.20;5.05;;;9.60;99.90;;;;;;4973812;28;20121;-76
2022/03/14 06:00:25;;;;;;;7.13;5.30;;;9.60;99.90;;;;;;4976503;28;20050;-76
2022/03/14 06:02:52;;;;;;;6.63;4.97;;;9.50;99.90;;;;;;4974223;28;20136;-76
2022/03/14 06:05:19;;;;;;;5.60;4.60;;;9.50;99.90;;;;;;4991052;28;20054;-76
2022/03/14 06:07:45;;;;;;;7.68;5.88;;;9.50;99.90;;;;;;4989898;28;20053;-76
2022/03/14 06:10:13;;;;;;;7.20;5.40;;;9.50;99.90;;;;;;4970740;28;20428;-76
2022/03/14 06:12:39;;;;;;;6.93;5.13;;;9.50;99.90;;;;;;4961933;28;20045;-77
2022/03/14 06:15:09;;;;;;;6.80;5.53;;;9.40;99.90;;;;;;4987673;28;20050;-77
2022/03/14 06:17:35;;;;;;;6.95;5.03;;;9.40;99.90;;;;;;4994971;28;20394;-77
2022/03/14 06:20:02;;;;;;;6.75;5.43;;;9.40;99.90;;;;;;4979240;28;20177;-77
2022/03/14 06:22:27;;;;;;;6.43;5.47;;;9.40;99.90;;;;;;4983631;28;20034;-77
2022/03/14 06:24:54;;;;;;;7.18;5.47;;;9.40;99.90;;;;;;4961758;28;20038;-77
2022/03/14 06:27:24;;;;;;;6.68;5.57;;;9.30;99.90;;;;;;4950313;28;20477;-77
2022/03/14 06:29:49;;;;;;;7.93;5.75;;;9.30;99.90;;;;;;4986678;28;20502;-77
2022/03/14 06:32:15;;;;;;;8.77;6.30;;;9.30;99.90;;;;;;4985927;28;20090;-77
2022/03/14 06:34:42;;;;;;;9.23;6.13;;;9.30;99.90;;;;;;4989169;28;20556;-77
2022/03/14 06:37:11;;;;;;;7.18;6.35;;;9.30;99.90;;;;;;4976883;28;20046;-76
2022/03/14 06:39:38;;;;;;;7.63;5.47;;;9.30;99.90;;;;;;4972069;28;20065;-77
2022/03/14 06:42:09;;;;;;;9.13;6.70;;;9.30;99.90;;;;;;4982572;28;20049;-76
2022/03/14 06:44:43;;;;;;;8.13;6.15;;;9.30;99.90;;;;;;4957790;28;20061;-77
2022/03/14 06:47:16;;;;;;;9.30;6.15;;;9.30;99.90;;;;;;4986314;28;20053;-77
2022/03/14 06:49:44;;;;;;;8.02;6.43;;;9.30;99.90;;;;;;4972708;28;20393;-77
2022/03/14 06:52:14;;;;;;;7.95;6.35;;;9.30;99.90;;;;;;4977703;28;20497;-77
2022/03/14 06:54:41;;;;;;;8.32;6.22;;;9.30;99.90;;;;;;4957352;28;20531;-78
2022/03/14 06:57:08;;;;;;;8.05;6.07;;;9.20;99.90;;;;;;4981663;28;20174;-78
2022/03/14 06:59:35;;;;;;;9.18;6.90;;;9.20;99.90;;;;;;4982019;28;20496;-78
2022/03/14 07:02:01;;;;;;;8.63;6.47;;;9.20;99.90;;;;;;4983993;28;20065;-78
2022/03/14 07:04:27;;;;;;;8.93;6.97;;;9.20;99.90;;;;;;4973475;28;20050;-78
2022/03/14 07:06:54;;;;;;;8.13;6.40;;;9.30;99.90;;;;;;4982374;28;21278;-80
2022/03/14 07:09:20;;;;;;;9.57;6.68;;;9.20;99.90;;;;;;4982456;28;20054;-78
2022/03/14 07:11:51;;;;;;;9.52;7.10;;;9.20;99.90;;;;;;4988182;28;20593;-78
2022/03/14 07:14:19;;;;;;;8.45;6.40;;;9.20;99.90;;;;;;4975370;28;20042;-78
2022/03/14 07:16:45;;;;;;;7.63;6.35;;;9.20;99.90;;;;;;4976717;28;20184;-78
2022/03/14 07:19:10;;;;;;;8.50;7.00;;;9.20;99.90;;;;;;4983648;28;20070;-78
2022/03/14 07:21:36;;;;;;;9.50;7.22;;;9.30;99.90;;;;;;4984705;28;20049;-78
2022/03/14 07:24:02;;;;;;;8.15;7.30;;;9.30;99.90;;;;;;4989438;28;20046;-79
2022/03/14 07:26:29;;;;;;;9.65;7.28;;;9.30;99.90;;;;;;4967835;28;20049;-78
2022/03/14 07:28:54;;;;;;;9.18;7.03;;;9.30;99.90;;;;;;4991211;28;20621;-78
2022/03/14 07:31:21;;;;;;;8.93;7.38;;;9.30;99.90;;;;;;4962962;28;20572;-79
2022/03/14 07:33:51;;;;;;;8.25;7.03;;;9.40;99.90;;;;;;4986042;28;20034;-78
2022/03/14 07:36:18;;;;;;;10.40;8.02;;;9.40;99.90;;;;;;4983171;28;20058;-78
2022/03/14 07:38:45;;;;;;;9.25;7.80;;;9.40;99.90;;;;;;4979374;28;20042;-78
2022/03/14 07:41:11;;;;;;;8.43;7.43;;;9.40;99.90;;;;;;4983405;28;20137;-80
2022/03/14 07:43:38;;;;;;;8.73;6.65;;;9.40;99.90;;;;;;4973910;28;20108;-79
2022/03/14 07:46:04;;;;;;;8.75;7.38;;;9.40;99.90;;;;;;4983560;28;20090;-79
2022/03/14 07:48:30;;;;;;;9.02;7.55;;;9.50;99.90;;;;;;4982438;28;20264;-79
2022/03/14 07:50:56;;;;;;;9.98;7.88;;;9.50;99.90;;;;;;4962903;28;20041;-79
2022/03/14 07:53:22;;;;;;;11.43;7.53;;;9.50;99.90;;;;;;4973315;28;20060;-79
2022/03/14 07:55:48;;;;;;;9.55;8.13;;;9.50;99.90;;;;;;4982445;28;20093;-79
2022/03/14 07:58:14;;;;;;;8.65;7.25;;;9.60;99.90;;;;;;4964935;28;20054;-79
2022/03/14 08:00:39;;;;;;;9.77;7.97;;;9.60;99.90;;;;;;4982561;28;20352;-79
2022/03/14 08:03:05;;;;;;;9.57;7.55;;;9.60;99.90;;;;;;4976709;28;20487;-79
2022/03/14 08:05:32;;;;;;;10.90;7.80;;;9.60;99.90;;;;;;4976545;28;20046;-80
2022/03/14 08:07:59;;;;;;;9.50;8.43;;;9.60;99.90;;;;;;4987875;28;20113;-79
2022/03/14 08:10:26;;;;;;;10.73;8.73;;;9.60;99.90;;;;;;4950836;28;20477;-80
2022/03/14 08:12:56;;;;;;;9.90;8.80;;;9.60;99.90;;;;;;4979496;28;20049;-80
2022/03/14 08:15:24;;;;;;;10.32;8.82;;;9.70;99.90;;;;;;4986556;28;20050;-79
2022/03/14 08:17:51;;;;;;;10.95;8.65;;;9.70;99.90;;;;;;4983537;28;20512;-79
2022/03/14 08:20:17;;;;;;;11.02;9.70;;;9.70;99.90;;;;;;4970350;28;20061;-79
2022/03/14 08:22:43;;;;;;;10.45;8.65;;;9.70;99.90;;;;;;4966327;28;20117;-80
2022/03/14 08:25:16;;;;;;;9.57;8.57;;;9.70;99.90;;;;;;4966861;28;20505;-79
2022/03/14 08:27:42;;;;;;;12.77;10.10;;;9.70;99.90;;;;;;4966697;28;20240;-80
2022/03/14 08:30:08;;;;;;;14.20;10.15;;;9.80;99.90;;;;;;4976691;28;20046;-79
2022/03/14 08:32:35;;;;;;;11.02;9.32;;;9.70;99.90;;;;;;4987673;28;20430;-78
2022/03/14 08:35:07;;;;;;;10.52;9.43;;;9.70;99.90;;;;;;4978880;28;20045;-78
2022/03/14 08:37:35;;;;;;;11.35;10.18;;;9.70;99.90;;;;;;4993176;28;20057;-80
2022/03/14 08:40:02;;;;;;;11.43;9.90;;;9.70;99.90;;;;;;4973879;28;20793;-79
2022/03/14 08:42:28;;;;;;;13.50;9.68;;;9.70;99.90;;;;;;4982320;28;20078;-79
2022/03/14 08:44:54;;;;;;;11.57;9.88;;;9.70;99.90;;;;;;4950964;28;20077;-79
2022/03/14 08:47:20;;;;;;;12.93;10.63;;;9.70;99.90;;;;;;4949147;28;20061;-79
2022/03/14 08:49:46;;;;;;;13.38;10.02;;;9.70;99.90;;;;;;5002558;28;20119;-79
2022/03/14 08:52:12;;;;;;;13.95;11.05;;;9.70;99.90;;;;;;4960365;28;20065;-78
2022/03/14 08:54:38;;;;;;;11.68;10.48;;;9.70;99.90;;;;;;4962875;28;20206;-77
2022/03/14 08:57:04;;;;;;;12.98;10.10;;;9.70;99.90;;;;;;4971224;28;20043;-78
2022/03/14 08:59:30;;;;;;;12.98;10.93;;;9.70;99.90;;;;;;4988986;28;20129;-79
2022/03/14 09:01:56;;;;;;;12.63;10.88;;;9.70;99.90;;;;;;4968790;28;20521;-79
2022/03/14 09:04:22;;;;;;;13.75;11.63;;;9.70;99.90;;;;;;4973298;28;20046;-79
2022/03/14 09:06:48;;;;;;;14.35;12.05;;;9.70;99.90;;;;;;4967113;28;20043;-79
2022/03/14 09:09:14;;;;;;;14.57;13.05;;;9.70;99.90;;;;;;4970971;28;20149;-79
2022/03/14 09:11:39;;;;;;;18.98;15.02;;;9.70;99.90;;;;;;4983571;28;20049;-79
2022/03/14 09:14:05;;;;;;;23.98;19.05;;;9.60;99.90;;;;;;4969553;28;20053;-79
2022/03/14 09:16:32;;;;;;;24.88;19.52;;;9.60;99.90;;;;;;4982850;28;20046;-79
2022/03/14 09:18:58;;;;;;;26.42;20.30;;;9.60;99.90;;;;;;4992070;28;20034;-80
2022/03/14 09:21:24;;;;;;;28.35;21.73;;;9.50;99.90;;;;;;4984827;28;20112;-80
2022/03/14 09:23:50;;;;;;;29.00;21.67;;;9.50;99.90;;;;;;4975015;28;20034;-80
2022/03/14 09:26:19;;;;;;;31.60;22.80;;;9.50;99.90;;;;;;4955745;28;20060;-80
2022/03/14 09:28:45;;;;;;;33.63;25.10;;;9.50;99.90;;;;;;4969391;28;20050;-83
2022/03/14 09:31:12;;;;;;;36.40;25.75;;;9.50;99.90;;;;;;4975628;28;20786;-79
2022/03/14 09:33:38;;;;;;;37.92;27.40;;;9.40;99.90;;;;;;4985073;28;20046;-79
2022/03/14 09:36:04;;;;;;;37.60;27.08;;;9.40;99.90;;;;;;4977272;28;20053;-81
2022/03/14 09:38:30;;;;;;;36.55;26.42;;;9.30;99.90;;;;;;4972215;28;20034;-81
2022/03/14 09:41:00;;;;;;;42.00;28.55;;;9.30;99.90;;;;;;4973677;28;20100;-80
2022/03/14 09:43:31;;;;;;;41.47;27.13;;;9.30;99.90;;;;;;4969101;28;20125;-79
2022/03/14 09:45:58;;;;;;;42.47;26.58;;;9.20;99.90;;;;;;4996828;28;20316;-80
2022/03/14 09:48:36;;;;;;;37.55;25.67;;;9.30;99.90;;;;;;4969363;28;20129;-80
2022/03/14 09:51:03;;;;;;;32.70;22.98;;;9.30;99.90;;;;;;4986048;28;20064;-80
2022/03/14 09:53:29;;;;;;;35.80;24.48;;;9.20;99.90;;;;;;4976430;28;20080;-80
2022/03/14 09:55:58;;;;;;;30.55;20.42;;;9.30;99.90;;;;;;4974589;28;20508;-79
2022/03/14 09:58:24;;;;;;;37.75;23.42;;;9.20;99.90;;;;;;4975855;28;20125;-81
2022/03/14 10:00:50;;;;;;;24.65;16.25;;;9.20;99.90;;;;;;4969435;28;20050;-83
2022/03/14 10:03:18;;;;;;;26.30;16.08;;;9.20;99.90;;;;;;4972706;28;20054;-81
2022/03/14 10:05:45;;;;;;;24.98;16.15;;;9.20;99.90;;;;;;4974621;28;20088;-81
2022/03/14 10:08:11;;;;;;;26.90;17.27;;;9.20;99.90;;;;;;4969350;28;20049;-81
2022/03/14 10:10:38;;;;;;;29.02;19.08;;;9.20;99.90;;;;;;4985375;28;20145;-81
2022/03/14 10:13:08;;;;;;;27.20;18.42;;;9.20;99.90;;;;;;4973664;28;20386;-82
2022/03/14 10:15:38;;;;;;;30.02;19.02;;;9.20;99.90;;;;;;4972960;28;20501;-82
2022/03/14 10:18:11;;;;;;;;;;;9.20;99.90;;;;;;4999398;28;20050;-81
2022/03/14 10:20:38;;;;;;;31.10;19.95;;;9.20;99.90;;;;;;4989336;28;19925;-81
2022/03/14 10:23:04;;;;;;;29.42;19.38;;;9.20;99.90;;;;;;4986282;28;20053;-81
2022/03/14 10:25:30;;;;;;;29.30;19.33;;;9.30;99.90;;;;;;4951137;28;20375;-80
2022/03/14 10:27:57;;;;;;;27.98;18.58;;;9.30;99.90;;;;;;4971209;28;20053;-81
2022/03/14 10:30:34;;;;;;;27.80;17.42;;;9.30;99.90;;;;;;4976534;28;20137;-81
2022/03/14 10:33:09;;;;;;;31.77;18.25;;;9.30;99.90;;;;;;4994069;28;20050;-81
2022/03/14 10:35:36;;;;;;;29.17;18.85;;;9.30;99.90;;;;;;4967898;28;20053;-80
2022/03/14 10:38:06;;;;;;;31.20;18.38;;;9.40;99.90;;;;;;4987323;28;20046;-81
2022/03/14 10:40:43;;;;;;;31.55;17.15;;;9.40;99.90;;;;;;4986477;28;20049;-81
2022/03/14 10:43:28;;;;;;;28.80;16.50;;;9.40;99.90;;;;;;4970192;28;20054;-81
2022/03/14 10:45:59;;;;;;;27.25;15.18;;;9.50;99.90;;;;;;4992571;28;20420;-82
2022/03/14 10:48:49;;;;;;;29.60;16.23;;;9.50;99.90;;;;;;4980081;28;20572;-81
2022/03/14 10:51:17;;;;;;;29.98;16.00;;;9.60;99.90;;;;;;4960825;28;20305;-80
2022/03/14 10:53:47;;;;;;;27.17;14.77;;;9.70;99.90;;;;;;4971214;28;20046;-80
2022/03/14 10:56:15;;;;;;;26.70;15.27;;;9.70;99.90;;;;;;4990015;28;20048;-81
2022/03/14 10:58:43;;;;;;;22.45;13.02;;;9.80;99.90;;;;;;4983068;28;20097;-81
2022/03/14 11:01:13;;;;;;;20.95;12.57;;;9.80;99.90;;;;;;4953911;28;20210;-80
2022/03/14 11:03:41;;;;;;;20.23;11.80;;;9.90;99.90;;;;;;4955738;28;20042;-80
2022/03/14 11:06:14;;;;;;;23.70;12.00;;;9.90;99.90;;;;;;4982645;28;20632;-79
2022/03/14 11:08:42;;;;;;;16.05;9.98;;;10.00;99.90;;;;;;4988270;28;20060;-81
2022/03/14 11:11:22;;;;;;;18.20;10.10;;;10.00;99.90;;;;;;4966599;28;20050;-80
2022/03/14 11:13:52;;;;;;;18.83;10.23;;;10.00;99.90;;;;;;4974721;28;20085;-79
2022/03/14 11:16:21;;;;;;;19.83;10.60;;;9.90;99.90;;;;;;4991958;28;20053;-80
2022/03/14 11:18:48;;;;;;;22.40;10.18;;;9.90;99.90;;;;;;4988067;28;20417;-82
2022/03/14 11:21:16;;;;;;;13.95;8.93;;;9.90;99.90;;;;;;4975069;28;20061;-81
2022/03/14 11:23:44;;;;;;;18.23;9.45;;;9.90;99.90;;;;;;4985502;28;20049;-83
2022/03/14 11:26:11;;;;;;;18.15;9.63;;;9.90;99.90;;;;;;4969879;28;20046;-82
2022/03/14 11:28:41;;;;;;;20.40;11.65;;;9.90;99.90;;;;;;4993379;28;20061;-82
2022/03/14 11:31:08;;;;;;;24.63;14.82;;;9.90;99.90;;;;;;4983082;28;20386;-82
2022/03/14 11:33:38;;;;;;;27.15;17.30;;;9.90;99.90;;;;;;4989574;28;20133;-82
2022/03/14 11:36:07;;;;;;;27.45;17.70;;;9.90;99.90;;;;;;4984990;28;20077;-82
2022/03/14 11:38:34;;;;;;;30.83;20.42;;;9.90;99.90;;;;;;4988316;28;20802;-81
2022/03/14 11:41:00;;;;;;;28.92;20.40;;;10.00;99.90;;;;;;4966664;28;20042;-80
2022/03/14 11:43:27;;;;;;;31.73;19.80;;;10.00;99.90;;;;;;4993958;28;20172;-81
2022/03/14 11:45:55;;;;;;;31.50;21.58;;;10.10;99.90;;;;;;4994921;28;20148;-79
2022/03/14 11:48:22;;;;;;;30.70;22.10;;;10.10;99.90;;;;;;4966591;28;20109;-78
2022/03/14 11:51:02;;;;;;;31.33;22.70;;;10.20;99.90;;;;;;4990837;28;20525;-79
2022/03/14 11:53:33;;;;;;;26.95;19.70;;;10.30;99.90;;;;;;4972816;28;20050;-79
2022/03/14 11:56:07;;;;;;;26.95;19.30;;;10.30;99.90;;;;;;4976887;28;20041;-79
2022/03/14 11:58:41;;;;;;;28.38;17.38;;;10.30;99.90;;;;;;4995698;28;20194;-77
2022/03/14 12:01:17;;;;;;;21.42;16.33;;;10.30;99.90;;;;;;4971537;28;20443;-80
2022/03/14 12:03:47;;;;;;;20.45;15.05;;;10.30;99.90;;;;;;4971615;28;20196;-78
2022/03/14 12:06:13;;;;;;;26.00;17.17;;;10.30;99.90;;;;;;4983012;28;20053;-82
2022/03/14 12:08:45;;;;;;;25.83;18.02;;;10.30;99.90;;;;;;4984418;28;20038;-82
2022/03/14 12:11:26;;;;;;;28.08;19.25;;;10.30;99.90;;;;;;4990398;28;20096;-79
2022/03/14 12:13:52;;;;;;;26.15;19.10;;;10.30;99.90;;;;;;4977252;28;20050;-78
2022/03/14 12:16:37;;;;;;;27.67;19.02;;;10.40;99.90;;;;;;4987057;28;20057;-79
2022/03/14 12:19:26;;;;;;;28.35;18.85;;;10.40;99.90;;;;;;4975184;28;20485;-79
2022/03/14 12:21:54;;;;;;;25.25;19.23;;;10.50;99.90;;;;;;4976089;28;20046;-81
2022/03/14 12:24:36;;;;;;;28.92;20.70;;;10.50;99.90;;;;;;4971878;28;20051;-79
2022/03/14 12:27:12;;;;;;;25.48;19.92;;;10.50;99.90;;;;;;4989194;28;20104;-81
2022/03/14 12:29:40;;;;;;;26.17;19.95;;;10.60;99.90;;;;;;4966960;28;20058;-78
2022/03/14 12:32:24;;;;;;;30.42;22.60;;;10.70;99.90;;;;;;4991354;28;20057;-79
2022/03/14 12:35:10;;;;;;;29.10;22.60;;;10.80;99.90;;;;;;4990078;28;20445;-79
2022/03/14 12:37:46;;;;;;;28.85;23.25;;;10.90;99.90;;;;;;4985431;28;20492;-79
2022/03/14 12:40:19;;;;;;;32.67;24.50;;;10.90;99.90;;;;;;4976991;28;20050;-80
2022/03/14 12:42:54;;;;;;;29.48;23.60;;;11.00;99.90;;;;;;4990858;28;20400;-79
2022/03/14 12:45:40;;;;;;;28.08;23.33;;;11.10;99.90;;;;;;4974615;28;20122;-80
2022/03/14 12:48:19;;;;;;;34.28;23.13;;;11.30;99.90;;;;;;4986818;28;20077;-79